Kerby, Oregon
Current Conditions -  °F | °C
As of 5:56 PM on Friday 19 Dec 2014 (Local Time) from KSXT Reporting Station
Light Rain Light Rain  
Wind Chill: 29°   Ceiling: 100
Heat Index: 37°   Visibility: 0.25mi
Dew Point: 37°   Wind: 12mph
Humidity: 100%   Direction: 180°S
Pressure: 29.97"   Gusts: 20mph
Location:  42.19°N, 123.65°W
Report Text: KSXT 200156Z AUTO 18010G17KT 1/4SM -RA FG VV001 03/03 A2997 RMK AO2 UPB12E35RAB35 SLP164 P0001 T00280028
Loading
Personal Weather Stations






























Interactive Weather Map New forecast layout! Learn more

10-Day Weather Forecast

Advertisements
Track Severe Weather on mobile